Terminal Aerodrome Forecast
Issued by NWS

Home | Current Version | Previous Version | Text Only | Print | Product List | Glossary On
Versions: 1 2 3 4 5 6 7 8 9 10 11 12 13 14 15 16 17 18 19 20 21 22
000
FTUS43 KLSX 282100 AAB
TAFSUS
TAF AMD
KSUS 282153Z 2822/2918 14010KT P6SM VCTS SCT040CB BKN080
      TEMPO 2822/2823 VRB15G30KT 3SM TSRA OVC035CB
     FM290200 10004KT P6SM SCT200
     FM291500 15006KT P6SM SCT060=

USA.gov is the U.S. government's official web portal to all federal, state and local government web resources and services.